Time;durP1;ratioP1;P1;durP2;ratioP2;P2;SDS_P1;SDS_P2;PMS_P1;PMS_P2;Temp;Humidity;BMP_temperature;BMP_pressure;BME280_temperature;BME280_humidity;BME280_pressure;Samples;Min_cycle;Max_cycle;Signal;HPM_P1;HPM_P2
2023/12/20 00:00:25;;;;;;;10.45;2.50;;;4.80;99.90;;;;;;5008759;28;20030;-58
2023/12/20 00:02:51;;;;;;;7.90;2.67;;;4.80;99.90;;;;;;5014109;28;20063;-56
2023/12/20 00:05:16;;;;;;;9.57;2.95;;;4.80;99.90;;;;;;5008291;28;20156;-56
2023/12/20 00:07:42;;;;;;;12.13;3.03;;;4.80;99.90;;;;;;5005997;28;20041;-56
2023/12/20 00:10:08;;;;;;;5.20;1.63;;;4.70;99.90;;;;;;5007130;28;20105;-56
2023/12/20 00:12:33;;;;;;;5.30;1.33;;;4.70;99.90;;;;;;5006981;28;20255;-55
2023/12/20 00:14:59;;;;;;;7.80;1.98;;;4.60;99.90;;;;;;5006515;28;20176;-56
2023/12/20 00:17:24;;;;;;;2.60;1.10;;;4.60;99.90;;;;;;5006998;28;20034;-54
2023/12/20 00:19:50;;;;;;;6.35;1.52;;;4.50;99.90;;;;;;5007589;28;20646;-55
2023/12/20 00:22:15;;;;;;;5.18;1.45;;;4.50;99.90;;;;;;5006607;28;20084;-58
2023/12/20 00:24:41;;;;;;;3.42;1.58;;;4.50;99.90;;;;;;5009154;28;20049;-59
2023/12/20 00:27:06;;;;;;;3.67;1.15;;;4.50;99.90;;;;;;5007116;28;20022;-52
2023/12/20 00:29:32;;;;;;;4.68;1.33;;;4.50;99.90;;;;;;5006516;28;20041;-56
2023/12/20 00:31:58;;;;;;;8.45;1.63;;;4.50;99.90;;;;;;5008965;28;20063;-56
2023/12/20 00:34:24;;;;;;;4.03;1.17;;;4.50;99.90;;;;;;5007076;28;20069;-58
2023/12/20 00:36:49;;;;;;;7.30;2.10;;;4.50;99.90;;;;;;5010188;28;20021;-58
2023/12/20 00:39:15;;;;;;;5.00;1.20;;;4.50;99.90;;;;;;5008698;28;20505;-58
2023/12/20 00:41:40;;;;;;;7.32;1.30;;;4.50;99.90;;;;;;5005869;28;20030;-56
2023/12/20 00:44:06;;;;;;;5.07;1.73;;;4.40;99.90;;;;;;5010305;28;20104;-57
2023/12/20 00:46:32;;;;;;;4.72;2.05;;;4.40;99.90;;;;;;5004434;28;20077;-57
2023/12/20 00:48:57;;;;;;;9.40;1.48;;;4.50;99.90;;;;;;5008533;28;20037;-56
2023/12/20 00:51:23;;;;;;;8.25;1.40;;;4.40;99.90;;;;;;5005345;28;20030;-63
2023/12/20 00:53:54;;;;;;;8.93;1.55;;;4.40;99.90;;;;;;5006684;28;20486;-57
2023/12/20 00:56:20;;;;;;;4.50;1.55;;;4.40;99.90;;;;;;5003854;28;20053;-56
2023/12/20 00:58:46;;;;;;;8.73;1.13;;;4.40;99.90;;;;;;5006388;28;20022;-57
2023/12/20 01:01:11;;;;;;;3.30;1.25;;;4.40;99.90;;;;;;5008727;28;20490;-54
2023/12/20 01:03:37;;;;;;;4.78;1.27;;;4.30;99.90;;;;;;5010060;28;20129;-57
2023/12/20 01:06:04;;;;;;;7.65;1.67;;;4.30;99.90;;;;;;5007942;28;20037;-56
2023/12/20 01:08:30;;;;;;;7.80;1.58;;;4.30;99.90;;;;;;5005538;28;20032;-57
2023/12/20 01:10:55;;;;;;;11.60;1.88;;;4.30;99.90;;;;;;5007025;28;20109;-56
2023/12/20 01:13:21;;;;;;;7.75;1.27;;;4.30;99.90;;;;;;5005888;28;20042;-58
2023/12/20 01:15:47;;;;;;;5.63;1.27;;;4.30;99.90;;;;;;5006953;28;20030;-56
2023/12/20 01:18:13;;;;;;;9.52;1.52;;;4.30;99.90;;;;;;5006032;28;20037;-54
2023/12/20 01:20:39;;;;;;;6.65;0.80;;;4.30;99.90;;;;;;5003388;28;20048;-59
2023/12/20 01:23:05;;;;;;;6.30;0.98;;;4.20;99.90;;;;;;5005702;28;20113;-57
2023/12/20 01:25:30;;;;;;;5.50;1.42;;;4.20;99.90;;;;;;5000939;28;20038;-58
2023/12/20 01:27:56;;;;;;;4.95;1.27;;;4.20;99.90;;;;;;5004198;28;20105;-57
2023/12/20 01:30:21;;;;;;;6.43;1.55;;;4.20;99.90;;;;;;5004666;28;20109;-57
2023/12/20 01:32:47;;;;;;;3.72;1.35;;;4.20;99.90;;;;;;4999149;28;20418;-57
2023/12/20 01:35:13;;;;;;;9.57;1.52;;;4.20;99.90;;;;;;5004812;28;20034;-56
2023/12/20 01:37:39;;;;;;;6.18;1.40;;;4.20;99.90;;;;;;4996765;28;20027;-57
2023/12/20 01:40:05;;;;;;;6.95;1.23;;;4.20;99.90;;;;;;5002955;28;20029;-56
2023/12/20 01:42:31;;;;;;;4.30;1.35;;;4.20;99.90;;;;;;4998963;28;20038;-60
2023/12/20 01:44:56;;;;;;;12.75;2.05;;;4.20;99.90;;;;;;5002509;28;20092;-59
2023/12/20 01:47:22;;;;;;;11.48;2.13;;;4.20;99.90;;;;;;5000291;28;20466;-58
2023/12/20 01:49:49;;;;;;;7.55;1.63;;;4.20;99.90;;;;;;5001401;28;20446;-56
2023/12/20 01:52:14;;;;;;;5.50;1.13;;;4.20;99.90;;;;;;5001132;28;20387;-56
2023/12/20 01:54:41;;;;;;;10.43;2.30;;;4.20;99.90;;;;;;4999162;28;20041;-58
2023/12/20 01:57:08;;;;;;;8.77;1.70;;;4.20;99.90;;;;;;4998685;28;20597;-56
2023/12/20 01:59:34;;;;;;;7.65;1.67;;;4.20;99.90;;;;;;5000657;28;20037;-56
2023/12/20 02:02:00;;;;;;;8.50;1.70;;;4.30;99.90;;;;;;5001949;28;20121;-56
2023/12/20 02:04:26;;;;;;;6.63;1.58;;;4.30;99.90;;;;;;4998252;28;20112;-58
2023/12/20 02:06:53;;;;;;;10.13;2.13;;;4.30;99.90;;;;;;4999729;28;20113;-53
2023/12/20 02:09:19;;;;;;;4.97;1.67;;;4.30;99.90;;;;;;5000171;28;20038;-57
2023/12/20 02:11:44;;;;;;;11.68;1.90;;;4.30;99.90;;;;;;4997676;28;20410;-58
2023/12/20 02:14:10;;;;;;;9.45;1.50;;;4.30;99.90;;;;;;5000661;28;20041;-59
2023/12/20 02:16:36;;;;;;;7.78;1.10;;;4.30;99.90;;;;;;4998856;28;20097;-57
2023/12/20 02:19:03;;;;;;;9.85;1.98;;;4.30;99.90;;;;;;5000213;28;20041;-55
2023/12/20 02:21:35;;;;;;;9.73;1.75;;;4.40;99.90;;;;;;4998308;28;20031;-55
2023/12/20 02:24:00;;;;;;;9.80;1.90;;;4.40;99.90;;;;;;4997810;28;20089;-59
2023/12/20 02:26:26;;;;;;;4.07;1.42;;;4.40;99.90;;;;;;4999238;28;20030;-54
2023/12/20 02:28:52;;;;;;;9.50;2.47;;;4.40;99.90;;;;;;5001814;28;20695;-56
2023/12/20 02:31:22;;;;;;;3.33;1.52;;;4.40;99.90;;;;;;5005365;28;20026;-54
2023/12/20 02:33:47;;;;;;;7.95;1.42;;;4.50;99.90;;;;;;4999800;28;20064;-59
2023/12/20 02:36:13;;;;;;;10.90;1.88;;;4.50;99.90;;;;;;4996534;28;20415;-58
2023/12/20 02:38:38;;;;;;;3.58;1.25;;;4.60;99.90;;;;;;5002781;28;20098;-57
2023/12/20 02:41:04;;;;;;;7.82;1.90;;;4.60;99.90;;;;;;4999512;28;20030;-54
2023/12/20 02:43:29;;;;;;;3.83;1.65;;;4.60;99.90;;;;;;5000802;28;20034;-59
2023/12/20 02:45:55;;;;;;;6.57;1.55;;;4.60;99.90;;;;;;4995301;28;20037;-57
2023/12/20 02:48:21;;;;;;;8.07;1.58;;;4.70;99.90;;;;;;4999849;28;20041;-52
2023/12/20 02:50:48;;;;;;;8.82;1.50;;;4.70;99.90;;;;;;5000026;28;20104;-55
2023/12/20 02:53:14;;;;;;;4.10;1.23;;;4.60;99.90;;;;;;5000694;28;20035;-56
2023/12/20 02:55:40;;;;;;;3.75;1.48;;;4.70;99.90;;;;;;4998771;28;20037;-54
2023/12/20 02:58:05;;;;;;;7.15;1.50;;;4.70;99.90;;;;;;5000341;28;20494;-54
2023/12/20 03:00:31;;;;;;;6.82;1.27;;;4.70;99.90;;;;;;4996871;28;20109;-58
2023/12/20 03:02:56;;;;;;;6.40;1.80;;;4.70;99.90;;;;;;5000349;28;20025;-59
2023/12/20 03:05:22;;;;;;;7.47;2.03;;;4.70;99.90;;;;;;4999484;28;20037;-54
2023/12/20 03:07:47;;;;;;;11.75;1.73;;;4.70;99.90;;;;;;5000084;28;20030;-55
2023/12/20 03:10:13;;;;;;;4.95;1.40;;;4.70;99.90;;;;;;5000632;28;20018;-53
2023/12/20 03:12:38;;;;;;;9.85;1.70;;;4.60;99.90;;;;;;5002277;28;20026;-55
2023/12/20 03:15:04;;;;;;;6.85;1.83;;;4.70;99.90;;;;;;4993736;28;20425;-55
2023/12/20 03:17:30;;;;;;;5.45;1.83;;;4.70;99.90;;;;;;4999732;28;20498;-56
2023/12/20 03:19:55;;;;;;;3.97;2.05;;;4.70;99.90;;;;;;5000063;28;20056;-54
2023/12/20 03:22:21;;;;;;;4.72;2.05;;;4.80;99.90;;;;;;5002431;28;20061;-58
2023/12/20 03:24:47;;;;;;;4.43;1.45;;;4.80;99.90;;;;;;4999363;28;20110;-57
2023/12/20 03:27:12;;;;;;;3.88;1.27;;;4.80;99.90;;;;;;5002088;28;20106;-56
2023/12/20 03:29:38;;;;;;;7.43;1.42;;;4.80;99.90;;;;;;5003436;28;20042;-54
2023/12/20 03:32:03;;;;;;;5.22;1.42;;;4.80;99.90;;;;;;4997830;28;20038;-58
2023/12/20 03:34:29;;;;;;;10.75;1.55;;;4.80;99.90;;;;;;5000390;28;20035;-57
2023/12/20 03:36:55;;;;;;;6.70;1.58;;;4.80;99.90;;;;;;5004870;28;20061;-56
2023/12/20 03:39:20;;;;;;;5.20;1.30;;;4.80;99.90;;;;;;5002130;28;20026;-58
2023/12/20 03:41:46;;;;;;;6.90;1.55;;;4.80;99.90;;;;;;4999817;28;20394;-58
2023/12/20 03:44:11;;;;;;;7.88;1.70;;;4.80;99.90;;;;;;5003469;28;20494;-57
2023/12/20 03:46:37;;;;;;;4.68;1.83;;;4.80;99.90;;;;;;5003870;28;20391;-58
2023/12/20 03:49:02;;;;;;;12.82;2.13;;;4.80;99.90;;;;;;5003358;28;20030;-52
2023/12/20 03:51:28;;;;;;;3.33;1.08;;;4.80;99.90;;;;;;5005499;28;20030;-53
2023/12/20 03:53:53;;;;;;;7.07;1.67;;;4.80;99.90;;;;;;5001745;28;20109;-59
2023/12/20 03:56:19;;;;;;;4.53;1.35;;;4.80;99.90;;;;;;5001911;28;20084;-56
2023/12/20 03:58:44;;;;;;;5.18;1.42;;;4.80;99.90;;;;;;5001185;28;20034;-56
2023/12/20 04:01:12;;;;;;;3.35;1.52;;;4.80;99.90;;;;;;5003585;28;20030;-53
2023/12/20 04:03:38;;;;;;;6.10;1.10;;;4.80;99.90;;;;;;5000555;28;20604;-55
2023/12/20 04:06:04;;;;;;;10.60;1.85;;;4.80;99.90;;;;;;5007435;28;20383;-55
2023/12/20 04:08:29;;;;;;;7.38;1.55;;;4.80;99.90;;;;;;5000592;28;20032;-56
2023/12/20 04:10:55;;;;;;;3.88;1.20;;;4.70;99.90;;;;;;5005553;28;20030;-57
2023/12/20 04:13:20;;;;;;;9.57;2.03;;;4.80;99.90;;;;;;5001874;28;20161;-55
2023/12/20 04:15:46;;;;;;;8.48;1.48;;;4.80;99.90;;;;;;5000837;28;20033;-53
2023/12/20 04:18:11;;;;;;;7.68;1.25;;;4.80;99.90;;;;;;4999466;28;20026;-55
2023/12/20 04:20:37;;;;;;;7.93;1.65;;;4.80;99.90;;;;;;4998404;28;20026;-58
2023/12/20 04:23:03;;;;;;;10.02;2.85;;;4.80;99.90;;;;;;5001179;28;20084;-56
2023/12/20 04:25:28;;;;;;;13.75;2.10;;;4.80;99.90;;;;;;4999617;28;20062;-53
2023/12/20 04:27:54;;;;;;;4.93;1.10;;;4.80;99.90;;;;;;5007324;28;20040;-59
2023/12/20 04:30:19;;;;;;;2.22;1.27;;;4.80;99.90;;;;;;5001302;28;20044;-52
2023/12/20 04:32:45;;;;;;;8.50;1.63;;;4.80;99.90;;;;;;5006035;28;20026;-53
2023/12/20 04:35:10;;;;;;;4.95;1.77;;;4.80;99.90;;;;;;5000793;28;20030;-56
2023/12/20 04:37:36;;;;;;;7.88;2.00;;;4.80;99.90;;;;;;5006510;28;20077;-51
2023/12/20 04:40:01;;;;;;;8.30;1.67;;;4.80;99.90;;;;;;5013358;28;20657;-53
2023/12/20 04:42:27;;;;;;;14.98;2.05;;;4.90;99.90;;;;;;5014495;28;20438;-53
2023/12/20 04:44:53;;;;;;;7.57;1.63;;;4.80;99.90;;;;;;5007370;28;20026;-53
2023/12/20 04:47:18;;;;;;;6.55;1.38;;;4.90;99.90;;;;;;5072713;22;20060;-85
2023/12/20 04:49:46;;;;;;;6.80;1.27;;;4.90;99.90;;;;;;5049367;28;20108;-83
2023/12/20 04:52:12;;;;;;;9.43;2.50;;;4.90;99.90;;;;;;5050485;28;20016;-83
2023/12/20 04:54:37;;;;;;;5.40;1.42;;;4.90;99.90;;;;;;5048144;28;20082;-84
2023/12/20 04:57:03;;;;;;;8.60;2.03;;;4.90;99.90;;;;;;5048338;28;20041;-86
2023/12/20 04:59:29;;;;;;;5.95;1.25;;;4.90;99.90;;;;;;5050504;28;20101;-87
2023/12/20 05:01:54;;;;;;;2.63;1.40;;;5.00;99.90;;;;;;5048513;28;20732;-84
2023/12/20 05:04:20;;;;;;;9.15;2.25;;;4.90;99.90;;;;;;5050156;28;20051;-82
2023/12/20 05:06:45;;;;;;;4.72;1.33;;;4.90;99.90;;;;;;5050082;28;20042;-86
2023/12/20 05:09:11;;;;;;;5.35;1.58;;;4.90;99.90;;;;;;5048063;28;20091;-85
2023/12/20 05:11:37;;;;;;;10.55;1.90;;;4.90;99.90;;;;;;5048764;28;20032;-86
2023/12/20 05:14:02;;;;;;;5.43;1.27;;;4.90;99.90;;;;;;5049297;28;20112;-83
2023/12/20 05:16:28;;;;;;;6.72;1.27;;;4.90;99.90;;;;;;5047451;28;20052;-85
2023/12/20 05:18:55;;;;;;;9.38;1.50;;;4.90;99.90;;;;;;5048864;28;20032;-83
2023/12/20 05:21:21;;;;;;;11.52;1.73;;;5.00;99.90;;;;;;5047310;28;20424;-83
2023/12/20 05:23:47;;;;;;;7.60;1.85;;;5.00;99.90;;;;;;5051654;28;20029;-85
2023/12/20 05:26:12;;;;;;;6.68;1.83;;;5.00;99.90;;;;;;5044972;28;20040;-83
2023/12/20 05:28:40;;;;;;;8.77;1.77;;;5.00;99.90;;;;;;5042588;28;20400;-84
2023/12/20 05:31:06;;;;;;;10.30;2.55;;;5.00;99.90;;;;;;5048860;28;20547;-85
2023/12/20 05:33:32;;;;;;;8.50;1.58;;;5.10;99.90;;;;;;5049463;28;20029;-84
2023/12/20 05:35:58;;;;;;;4.43;1.50;;;5.10;99.90;;;;;;5052645;28;20091;-84
2023/12/20 05:38:23;;;;;;;2.90;1.45;;;5.20;99.90;;;;;;5054856;28;20025;-84
2023/12/20 05:40:49;;;;;;;13.25;2.20;;;5.20;99.90;;;;;;5052603;28;20045;-84
2023/12/20 05:43:15;;;;;;;7.93;2.40;;;5.10;99.90;;;;;;5049860;28;20037;-84
2023/12/20 05:45:40;;;;;;;8.38;2.50;;;5.20;99.90;;;;;;5047866;28;20374;-84
2023/12/20 05:48:06;;;;;;;8.70;1.50;;;5.10;99.90;;;;;;5053334;28;20407;-84
2023/12/20 05:50:32;;;;;;;7.20;1.77;;;5.10;99.90;;;;;;5053423;28;20101;-83
2023/12/20 05:52:57;;;;;;;9.57;1.83;;;5.20;99.90;;;;;;5051334;28;20036;-86
2023/12/20 05:55:23;;;;;;;7.35;1.98;;;5.20;99.90;;;;;;5046636;28;20129;-84
2023/12/20 05:57:49;;;;;;;3.40;1.60;;;5.10;99.90;;;;;;5052350;28;20036;-85
2023/12/20 06:00:15;;;;;;;5.30;1.60;;;5.10;99.90;;;;;;5049062;28;20473;-84
2023/12/20 06:02:41;;;;;;;11.45;2.25;;;5.10;99.90;;;;;;5047290;28;20091;-84
2023/12/20 06:05:06;;;;;;;7.75;1.95;;;5.10;99.90;;;;;;5047102;28;20492;-85
2023/12/20 06:07:32;;;;;;;12.20;2.03;;;5.10;99.90;;;;;;5053541;28;20033;-85
2023/12/20 06:10:00;;;;;;;7.10;1.75;;;5.10;99.90;;;;;;5053809;28;20048;-84
2023/12/20 06:12:27;;;;;;;6.90;1.38;;;5.10;99.90;;;;;;5050999;28;20037;-84
2023/12/20 06:14:52;;;;;;;11.25;2.60;;;5.10;99.90;;;;;;5053342;28;20434;-84
2023/12/20 06:17:18;;;;;;;7.63;2.00;;;5.00;99.90;;;;;;5051160;28;20035;-83
2023/12/20 06:19:45;;;;;;;6.45;1.40;;;5.00;99.90;;;;;;5055503;28;20028;-85
2023/12/20 06:22:10;;;;;;;9.50;1.83;;;5.00;99.90;;;;;;5051464;28;20025;-83
2023/12/20 06:24:43;;;;;;;7.25;1.40;;;5.10;99.90;;;;;;5047342;28;20037;-83
2023/12/20 06:27:09;;;;;;;11.85;2.67;;;5.10;99.90;;;;;;5049705;28;20427;-85
2023/12/20 06:29:35;;;;;;;8.30;1.70;;;5.10;99.90;;;;;;5050013;28;20140;-87
2023/12/20 06:32:02;;;;;;;5.53;1.33;;;5.10;99.90;;;;;;5047633;28;20052;-86
2023/12/20 06:34:28;;;;;;;7.90;2.47;;;5.10;99.90;;;;;;5043871;28;20168;-83
2023/12/20 06:36:56;;;;;;;10.48;2.20;;;5.10;99.90;;;;;;5041824;28;20450;-86
2023/12/20 06:39:22;;;;;;;12.38;2.65;;;5.20;99.90;;;;;;5043966;28;20068;-82
2023/12/20 06:41:47;;;;;;;10.07;2.10;;;5.10;99.90;;;;;;5048120;28;20389;-85
2023/12/20 06:44:13;;;;;;;6.18;1.98;;;5.20;99.90;;;;;;5049577;28;20031;-85
2023/12/20 06:46:38;;;;;;;7.45;2.40;;;5.20;99.90;;;;;;5051907;28;20124;-85
2023/12/20 06:49:04;;;;;;;12.20;3.25;;;5.20;99.90;;;;;;5049585;28;20029;-84
2023/12/20 06:51:30;;;;;;;8.82;2.03;;;5.20;99.90;;;;;;5045841;28;20029;-83
2023/12/20 06:53:56;;;;;;;12.93;2.22;;;5.20;99.90;;;;;;5048787;28;20025;-85
2023/12/20 06:56:22;;;;;;;6.65;1.80;;;5.20;99.90;;;;;;5048246;28;20103;-84
2023/12/20 06:58:47;;;;;;;4.28;1.65;;;5.20;99.90;;;;;;5045315;28;20035;-83
2023/12/20 07:01:14;;;;;;;8.82;2.53;;;5.20;99.90;;;;;;5046263;28;20045;-84
2023/12/20 07:03:40;;;;;;;9.10;2.10;;;5.20;99.90;;;;;;5041730;28;20021;-85
2023/12/20 07:06:06;;;;;;;6.53;1.65;;;5.20;99.90;;;;;;5049608;28;20096;-83
2023/12/20 07:08:32;;;;;;;13.00;2.50;;;5.20;99.90;;;;;;5048708;28;20075;-84
2023/12/20 07:10:57;;;;;;;8.10;1.67;;;5.20;99.90;;;;;;5050763;28;20098;-84
2023/12/20 07:13:23;;;;;;;10.60;2.50;;;5.20;99.90;;;;;;5049541;28;20481;-84
2023/12/20 07:15:49;;;;;;;9.38;2.13;;;5.20;99.90;;;;;;5048212;28;20017;-83
2023/12/20 07:18:14;;;;;;;7.32;1.95;;;5.20;99.90;;;;;;5043955;28;20035;-86
2023/12/20 07:20:40;;;;;;;11.80;2.85;;;5.20;99.90;;;;;;5048746;28;20029;-83
2023/12/20 07:23:06;;;;;;;5.22;1.75;;;5.20;99.90;;;;;;5047488;28;20493;-83
2023/12/20 07:25:32;;;;;;;8.35;1.55;;;5.20;99.90;;;;;;5045599;28;20104;-85
2023/12/20 07:27:58;;;;;;;10.63;1.88;;;5.20;99.90;;;;;;5050512;28;20070;-82
2023/12/20 07:30:24;;;;;;;4.63;1.30;;;5.20;99.90;;;;;;5047252;28;20037;-84
2023/12/20 07:32:50;;;;;;;8.25;2.13;;;5.20;99.90;;;;;;5047112;28;20032;-86
2023/12/20 07:35:23;;;;;;;9.13;1.85;;;5.20;99.90;;;;;;5046045;28;20025;-84
2023/12/20 07:37:49;;;;;;;12.38;2.10;;;5.20;99.90;;;;;;5048333;28;20079;-84
2023/12/20 07:40:17;;;;;;;11.48;1.88;;;5.20;99.90;;;;;;5041811;28;20026;-83
2023/12/20 07:42:42;;;;;;;9.40;2.10;;;5.20;99.90;;;;;;5050908;28;20029;-85
2023/12/20 07:45:10;;;;;;;12.70;2.08;;;5.20;99.90;;;;;;5049693;28;20032;-85
2023/12/20 07:47:36;;;;;;;9.77;2.38;;;5.20;99.90;;;;;;5047988;28;20456;-85
2023/12/20 07:50:02;;;;;;;10.57;2.13;;;5.20;99.90;;;;;;5052109;28;20259;-85
2023/12/20 07:52:28;;;;;;;17.77;2.35;;;5.30;99.90;;;;;;5050912;28;20388;-84
2023/12/20 07:54:54;;;;;;;9.02;2.58;;;5.30;99.90;;;;;;5064731;22;20107;-54
2023/12/20 07:57:20;;;;;;;8.65;2.42;;;5.30;99.90;;;;;;5000620;28;20426;-56
2023/12/20 07:59:45;;;;;;;7.78;2.17;;;5.30;99.90;;;;;;5002730;28;20022;-49
2023/12/20 08:02:11;;;;;;;14.30;2.90;;;5.30;99.90;;;;;;4999801;28;20042;-54
2023/12/20 08:04:36;;;;;;;8.30;2.08;;;5.30;99.90;;;;;;4999746;28;20461;-51
2023/12/20 08:07:03;;;;;;;7.60;1.83;;;5.40;99.90;;;;;;4998155;28;20033;-52
2023/12/20 08:09:29;;;;;;;10.60;2.05;;;5.40;99.90;;;;;;5004113;28;20113;-55
2023/12/20 08:11:55;;;;;;;15.18;2.58;;;5.40;99.90;;;;;;5001527;28;20026;-54
2023/12/20 08:14:20;;;;;;;10.27;2.08;;;5.40;99.90;;;;;;5002574;28;20045;-50
2023/12/20 08:16:46;;;;;;;7.45;3.40;;;5.40;99.90;;;;;;5003355;28;20018;-56
2023/12/20 08:19:12;;;;;;;8.73;1.95;;;5.40;99.90;;;;;;5004500;28;20026;-52
2023/12/20 08:21:37;;;;;;;8.90;2.17;;;5.40;99.90;;;;;;5005571;28;20105;-54
2023/12/20 08:24:03;;;;;;;8.20;1.92;;;5.40;99.90;;;;;;5002761;28;20026;-52
2023/12/20 08:26:29;;;;;;;5.70;1.88;;;5.50;99.90;;;;;;5006706;28;20029;-50
2023/12/20 08:28:54;;;;;;;6.88;2.17;;;5.50;99.90;;;;;;5001191;28;20025;-51
2023/12/20 08:31:21;;;;;;;8.98;2.70;;;5.50;99.90;;;;;;5004283;28;20022;-50
2023/12/20 08:33:48;;;;;;;5.97;2.10;;;5.50;99.90;;;;;;5003304;28;20115;-48
2023/12/20 08:36:14;;;;;;;9.38;2.25;;;5.60;99.90;;;;;;5004929;28;20498;-52
2023/12/20 08:38:39;;;;;;;10.27;2.17;;;5.60;99.90;;;;;;5005890;28;20413;-52
2023/12/20 08:41:07;;;;;;;11.45;2.85;;;5.60;99.90;;;;;;5004494;28;20149;-50
2023/12/20 08:43:34;;;;;;;7.30;2.17;;;5.70;99.90;;;;;;5004663;28;20057;-51
2023/12/20 08:45:59;;;;;;;9.35;2.17;;;5.70;99.90;;;;;;5003789;28;20038;-49
2023/12/20 08:48:25;;;;;;;7.78;2.08;;;5.70;99.90;;;;;;5004614;28;20477;-51
2023/12/20 08:50:52;;;;;;;6.65;1.83;;;5.80;99.90;;;;;;5004819;28;21249;-54
2023/12/20 08:53:20;;;;;;;10.40;2.15;;;5.80;99.90;;;;;;5008164;28;20105;-53
2023/12/20 08:55:47;;;;;;;7.32;1.80;;;5.80;99.90;;;;;;5002643;28;20034;-50
2023/12/20 08:58:13;;;;;;;12.85;2.90;;;5.70;99.90;;;;;;5005464;28;20120;-47
2023/12/20 09:00:39;;;;;;;10.25;2.00;;;5.80;99.90;;;;;;5002357;28;20033;-50
2023/12/20 09:03:04;;;;;;;13.13;2.80;;;5.70;99.90;;;;;;5008602;28;20068;-51
2023/12/20 09:05:30;;;;;;;7.60;2.22;;;5.70;99.90;;;;;;5010270;28;20112;-53
2023/12/20 09:07:56;;;;;;;13.15;2.15;;;5.70;99.90;;;;;;5004082;28;20026;-53
2023/12/20 09:10:22;;;;;;;9.00;2.28;;;5.70;99.90;;;;;;5008149;28;20512;-49
2023/12/20 09:12:57;;;;;;;8.00;1.63;;;5.70;99.90;;;;;;5003229;28;20680;-52
2023/12/20 09:15:26;;;;;;;2.90;1.23;;;5.60;99.90;;;;;;5004030;28;20423;-59
2023/12/20 09:17:53;;;;;;;3.28;1.38;;;5.50;99.90;;;;;;5000805;28;20022;-54
2023/12/20 09:20:20;;;;;;;5.03;1.02;;;5.50;99.90;;;;;;5002195;28;20230;-51
2023/12/20 09:22:45;;;;;;;7.97;1.75;;;5.40;99.90;;;;;;5003166;28;20036;-52
2023/12/20 09:25:12;;;;;;;6.35;1.10;;;5.40;99.90;;;;;;5003013;28;20037;-51
2023/12/20 09:27:38;;;;;;;8.80;1.00;;;5.30;99.90;;;;;;5000135;28;20046;-53
2023/12/20 09:30:05;;;;;;;2.13;0.77;;;5.20;99.90;;;;;;5004920;28;20033;-55
2023/12/20 09:32:31;;;;;;;2.25;0.40;;;5.10;99.90;;;;;;5004694;28;20084;-52
2023/12/20 09:34:56;;;;;;;0.80;0.45;;;5.10;99.90;;;;;;5005854;28;20125;-50
2023/12/20 09:37:22;;;;;;;0.22;0.20;;;5.00;99.90;;;;;;5003630;28;20037;-52
2023/12/20 09:39:47;;;;;;;0.35;0.17;;;5.00;99.90;;;;;;5004596;28;20387;-48
2023/12/20 09:42:24;;;;;;;0.52;0.30;;;5.00;99.90;;;;;;4998954;28;20470;-49
2023/12/20 09:44:49;;;;;;;1.38;0.30;;;4.90;99.90;;;;;;5002464;28;20052;-51
2023/12/20 09:47:18;;;;;;;1.33;0.40;;;4.90;99.90;;;;;;4999896;28;20442;-52
2023/12/20 09:49:45;;;;;;;1.05;0.60;;;4.90;99.90;;;;;;5001973;28;20128;-52
2023/12/20 09:52:12;;;;;;;2.35;0.40;;;4.90;99.90;;;;;;5005799;28;20030;-51
2023/12/20 09:54:38;;;;;;;0.30;0.00;;;4.80;99.90;;;;;;5005434;28;20159;-52
2023/12/20 09:57:04;;;;;;;0.85;0.25;;;4.80;99.90;;;;;;5003295;28;20113;-54
2023/12/20 09:59:29;;;;;;;0.68;0.30;;;4.80;99.90;;;;;;4995125;28;20133;-47
2023/12/20 10:01:59;;;;;;;1.23;0.25;;;4.70;99.90;;;;;;4999749;28;20548;-49
2023/12/20 10:04:25;;;;;;;1.02;0.60;;;4.70;99.90;;;;;;5001667;28;20572;-54
2023/12/20 10:06:52;;;;;;;1.25;0.25;;;4.60;99.90;;;;;;5003074;28;20071;-48
2023/12/20 10:09:17;;;;;;;1.33;0.38;;;4.60;99.90;;;;;;5003068;28;20065;-50
2023/12/20 10:11:43;;;;;;;1.08;0.40;;;4.60;99.90;;;;;;5003371;28;20060;-50
2023/12/20 10:14:11;;;;;;;3.80;0.70;;;4.70;99.90;;;;;;5002548;28;20034;-53
2023/12/20 10:16:36;;;;;;;1.58;0.52;;;4.70;99.90;;;;;;5004255;28;20067;-52
2023/12/20 10:19:02;;;;;;;4.55;0.60;;;4.80;99.90;;;;;;5003999;28;20046;-53
2023/12/20 10:21:27;;;;;;;1.65;0.60;;;4.80;99.90;;;;;;5002858;28;20064;-51
2023/12/20 10:23:57;;;;;;;3.30;0.75;;;4.80;99.90;;;;;;5004618;28;20611;-56
2023/12/20 10:26:24;;;;;;;2.95;0.60;;;4.80;99.90;;;;;;5001608;28;20502;-51
2023/12/20 10:29:00;;;;;;;1.88;0.40;;;4.80;99.90;;;;;;5001674;28;20034;-53
2023/12/20 10:31:35;;;;;;;5.38;0.77;;;4.80;99.90;;;;;;5004933;28;20033;-53
2023/12/20 10:34:02;;;;;;;4.05;0.70;;;4.80;99.90;;;;;;5001939;28;20030;-50
2023/12/20 10:36:33;;;;;;;2.85;0.50;;;4.80;99.90;;;;;;5002931;28;20026;-52
2023/12/20 10:38:59;;;;;;;3.70;0.85;;;4.70;99.90;;;;;;4998946;28;20025;-52
2023/12/20 10:41:29;;;;;;;4.30;0.80;;;4.70;99.90;;;;;;5000790;28;20026;-52
2023/12/20 10:44:00;;;;;;;3.20;0.88;;;4.70;99.90;;;;;;5002311;28;20370;-52
2023/12/20 10:46:28;;;;;;;6.10;1.10;;;4.60;99.90;;;;;;5008042;28;20049;-50
2023/12/20 10:48:55;;;;;;;4.03;0.80;;;4.70;99.90;;;;;;5001847;28;20036;-52
2023/12/20 10:51:21;;;;;;;3.90;0.80;;;4.70;99.90;;;;;;5004190;28;20087;-51
2023/12/20 10:53:48;;;;;;;4.25;0.90;;;4.70;99.90;;;;;;5001465;28;20033;-51
2023/12/20 10:56:19;;;;;;;1.60;0.70;;;4.70;99.90;;;;;;5005614;28;20117;-53
2023/12/20 10:58:49;;;;;;;1.30;0.57;;;4.70;99.90;;;;;;5005776;28;20024;-53
2023/12/20 11:01:17;;;;;;;3.08;0.50;;;4.70;99.90;;;;;;5007791;28;20284;-53
2023/12/20 11:03:48;;;;;;;4.03;0.90;;;4.70;99.90;;;;;;5000310;28;20521;-56
2023/12/20 11:06:25;;;;;;;2.28;0.47;;;4.70;99.90;;;;;;5006492;28;20645;-55
2023/12/20 11:09:21;;;;;;;3.60;0.85;;;4.60;99.90;;;;;;5007492;28;20629;-54
2023/12/20 11:12:01;;;;;;;3.30;1.20;;;4.60;99.90;;;;;;5001981;28;20087;-48
2023/12/20 11:14:47;;;;;;;1.80;0.85;;;4.60;99.90;;;;;;5006617;28;20117;-53
2023/12/20 11:17:16;;;;;;;6.28;1.27;;;4.60;99.90;;;;;;5004752;28;20061;-50
2023/12/20 11:19:57;;;;;;;1.65;0.73;;;4.60;99.90;;;;;;5003603;28;20017;-49
2023/12/20 11:22:29;;;;;;;1.45;0.63;;;4.60;99.90;;;;;;4998293;28;20029;-48
2023/12/20 11:25:02;;;;;;;3.72;0.88;;;4.60;99.90;;;;;;4999007;28;20116;-54
2023/12/20 11:27:27;;;;;;;4.63;1.05;;;4.60;99.90;;;;;;4999745;28;20040;-53
2023/12/20 11:29:56;;;;;;;6.00;1.23;;;4.60;99.90;;;;;;4998086;28;20602;-49
2023/12/20 11:32:27;;;;;;;5.15;1.02;;;4.60;99.90;;;;;;5003619;28;20580;-50
2023/12/20 11:35:16;;;;;;;6.65;0.98;;;4.60;99.90;;;;;;5003434;28;20096;-49
2023/12/20 11:37:46;;;;;;;6.20;1.58;;;4.70;99.90;;;;;;5001045;28;20092;-47
2023/12/20 11:40:18;;;;;;;6.75;1.63;;;4.70;99.90;;;;;;5000705;28;20026;-57
2023/12/20 11:42:51;;;;;;;4.97;1.35;;;4.80;99.90;;;;;;5003061;28;20113;-51
2023/12/20 11:45:25;;;;;;;6.15;1.48;;;4.80;99.90;;;;;;4996927;28;20026;-54
2023/12/20 11:47:53;;;;;;;3.50;1.17;;;4.90;99.90;;;;;;5006752;28;20036;-54
2023/12/20 11:50:19;;;;;;;5.28;0.88;;;4.90;99.90;;;;;;5004119;28;20188;-49
2023/12/20 11:52:45;;;;;;;4.50;1.23;;;5.00;99.90;;;;;;5007581;28;20030;-50
2023/12/20 11:55:11;;;;;;;4.95;1.77;;;4.90;99.90;;;;;;4999181;28;20375;-52
2023/12/20 11:57:37;;;;;;;8.52;1.65;;;4.90;99.90;;;;;;5006034;28;20505;-53
2023/12/20 12:00:06;;;;;;;6.70;1.70;;;5.00;99.90;;;;;;4998143;28;20026;-56
2023/12/20 12:02:32;;;;;;;1.55;0.88;;;4.90;99.90;;;;;;5003769;28;20026;-57
2023/12/20 12:04:59;;;;;;;6.75;1.38;;;4.90;99.90;;;;;;4997502;28;20029;-54
2023/12/20 12:07:25;;;;;;;6.40;1.40;;;4.90;99.90;;;;;;5005212;28;20602;-52
2023/12/20 12:09:51;;;;;;;8.35;1.55;;;5.00;99.90;;;;;;4998189;28;20586;-51
2023/12/20 12:12:17;;;;;;;9.35;1.70;;;5.00;99.90;;;;;;5002054;28;20033;-56
2023/12/20 12:14:45;;;;;;;9.68;1.83;;;5.10;99.90;;;;;;5001198;28;20502;-51
2023/12/20 12:17:12;;;;;;;9.32;1.92;;;5.20;99.90;;;;;;5000316;28;20095;-50
2023/12/20 12:19:38;;;;;;;5.72;2.03;;;5.20;99.90;;;;;;4998546;28;20026;-52
2023/12/20 12:22:10;;;;;;;7.72;1.58;;;5.20;99.90;;;;;;4999051;28;20230;-52
2023/12/20 12:24:37;;;;;;;7.25;1.45;;;5.20;99.90;;;;;;4997668;28;20518;-51
2023/12/20 12:27:03;;;;;;;8.02;2.20;;;5.20;99.90;;;;;;4998074;28;20060;-53
2023/12/20 12:29:29;;;;;;;9.68;2.42;;;5.20;99.90;;;;;;4999537;28;20030;-53
2023/12/20 12:31:55;;;;;;;9.20;2.45;;;5.20;99.90;;;;;;4998759;28;20049;-52
2023/12/20 12:34:20;;;;;;;15.45;2.83;;;5.20;99.90;;;;;;5000662;28;20022;-51
2023/12/20 12:36:46;;;;;;;7.47;1.70;;;5.20;99.90;;;;;;5001179;28;20052;-53
2023/12/20 12:39:17;;;;;;;10.23;2.45;;;5.30;99.90;;;;;;5001940;28;20113;-52
2023/12/20 12:41:42;;;;;;;9.32;2.08;;;5.30;99.90;;;;;;4998983;28;20077;-53
2023/12/20 12:44:08;;;;;;;11.10;1.73;;;5.30;99.90;;;;;;4999776;28;20656;-47
2023/12/20 12:46:34;;;;;;;9.60;2.53;;;5.30;99.90;;;;;;5001357;28;20034;-53
2023/12/20 12:48:59;;;;;;;10.80;2.55;;;5.40;99.90;;;;;;5000493;28;20046;-53
2023/12/20 12:51:25;;;;;;;15.30;2.55;;;5.40;99.90;;;;;;5000728;28;20305;-55